sensor_id;sensor_type;location;lat;lon;timestamp;pressure;altitude;pressure_sealevel;temperature;humidity
71774;BME280;59607;52.130;5.430;2024-03-02T00:02:13;99850.78;;;8.63;100.00
71774;BME280;59607;52.130;5.430;2024-03-02T00:04:44;99858.44;;;8.64;100.00
71774;BME280;59607;52.130;5.430;2024-03-02T00:07:17;99851.59;;;8.63;100.00
71774;BME280;59607;52.130;5.430;2024-03-02T00:09:44;99855.03;;;8.64;100.00
71774;BME280;59607;52.130;5.430;2024-03-02T00:12:18;99854.22;;;8.63;100.00
71774;BME280;59607;52.130;5.430;2024-03-02T00:14:47;99864.50;;;8.65;100.00
71774;BME280;59607;52.130;5.430;2024-03-02T00:17:24;99868.41;;;8.69;100.00
71774;BME280;59607;52.130;5.430;2024-03-02T00:19:53;99876.88;;;8.71;100.00
71774;BME280;59607;52.130;5.430;2024-03-02T00:22:23;99878.16;;;8.75;100.00
71774;BME280;59607;52.130;5.430;2024-03-02T00:24:49;99889.22;;;8.77;100.00
71774;BME280;59607;52.130;5.430;2024-03-02T00:27:19;99894.47;;;8.77;100.00
71774;BME280;59607;52.130;5.430;2024-03-02T00:29:49;99905.75;;;8.78;100.00
71774;BME280;59607;52.130;5.430;2024-03-02T00:32:16;99903.94;;;8.79;100.00
71774;BME280;59607;52.130;5.430;2024-03-02T00:34:58;99913.59;;;8.78;100.00
71774;BME280;59607;52.130;5.430;2024-03-02T00:37:31;99934.31;;;8.80;100.00
71774;BME280;59607;52.130;5.430;2024-03-02T00:39:58;99928.81;;;8.74;100.00
71774;BME280;59607;52.130;5.430;2024-03-02T00:42:25;99948.09;;;8.73;100.00
71774;BME280;59607;52.130;5.430;2024-03-02T00:44:52;99953.16;;;8.75;100.00
71774;BME280;59607;52.130;5.430;2024-03-02T00:47:22;99960.34;;;8.73;100.00
71774;BME280;59607;52.130;5.430;2024-03-02T00:49:48;99956.47;;;8.69;100.00
71774;BME280;59607;52.130;5.430;2024-03-02T00:52:20;99954.53;;;8.62;100.00
71774;BME280;59607;52.130;5.430;2024-03-02T00:54:47;99956.03;;;8.57;100.00
71774;BME280;59607;52.130;5.430;2024-03-02T00:57:16;99961.09;;;8.50;100.00
71774;BME280;59607;52.130;5.430;2024-03-02T00:59:43;99963.25;;;8.46;100.00
71774;BME280;59607;52.130;5.430;2024-03-02T01:02:09;99973.38;;;8.41;100.00
71774;BME280;59607;52.130;5.430;2024-03-02T01:04:36;99972.41;;;8.34;100.00
71774;BME280;59607;52.130;5.430;2024-03-02T01:07:07;99968.88;;;8.26;100.00
71774;BME280;59607;52.130;5.430;2024-03-02T01:09:34;99966.94;;;8.20;100.00
71774;BME280;59607;52.130;5.430;2024-03-02T01:12:04;99968.41;;;8.14;100.00
71774;BME280;59607;52.130;5.430;2024-03-02T01:14:31;99979.03;;;8.13;100.00
71774;BME280;59607;52.130;5.430;2024-03-02T01:16:58;99980.34;;;8.09;100.00
71774;BME280;59607;52.130;5.430;2024-03-02T01:19:33;99979.22;;;8.03;100.00
71774;BME280;59607;52.130;5.430;2024-03-02T01:22:00;99973.22;;;7.94;100.00
71774;BME280;59607;52.130;5.430;2024-03-02T01:24:27;99971.91;;;7.90;100.00
71774;BME280;59607;52.130;5.430;2024-03-02T01:26:59;99987.28;;;7.85;100.00
71774;BME280;59607;52.130;5.430;2024-03-02T01:29:25;99989.38;;;7.81;100.00
71774;BME280;59607;52.130;5.430;2024-03-02T01:31:52;99993.47;;;7.75;100.00
71774;BME280;59607;52.130;5.430;2024-03-02T01:34:22;99987.94;;;7.70;100.00
71774;BME280;59607;52.130;5.430;2024-03-02T01:36:48;99985.50;;;7.69;100.00
71774;BME280;59607;52.130;5.430;2024-03-02T01:39:15;99988.56;;;7.72;100.00
71774;BME280;59607;52.130;5.430;2024-03-02T01:41:48;99989.06;;;7.68;100.00
71774;BME280;59607;52.130;5.430;2024-03-02T01:44:17;99987.44;;;7.67;100.00
71774;BME280;59607;52.130;5.430;2024-03-02T01:46:48;99987.63;;;7.65;100.00
71774;BME280;59607;52.130;5.430;2024-03-02T01:49:15;99992.19;;;7.63;100.00
71774;BME280;59607;52.130;5.430;2024-03-02T01:51:41;99991.34;;;7.62;100.00
71774;BME280;59607;52.130;5.430;2024-03-02T01:54:18;99996.09;;;7.59;100.00
71774;BME280;59607;52.130;5.430;2024-03-02T01:56:54;99993.81;;;7.56;100.00
71774;BME280;59607;52.130;5.430;2024-03-02T01:59:20;99993.16;;;7.53;100.00
71774;BME280;59607;52.130;5.430;2024-03-02T02:01:50;99993.34;;;7.52;100.00
71774;BME280;59607;52.130;5.430;2024-03-02T02:04:20;99991.72;;;7.51;100.00
71774;BME280;59607;52.130;5.430;2024-03-02T02:06:59;99985.84;;;7.49;100.00
71774;BME280;59607;52.130;5.430;2024-03-02T02:09:26;99978.50;;;7.44;100.00
71774;BME280;59607;52.130;5.430;2024-03-02T02:12:03;99988.28;;;7.42;100.00
71774;BME280;59607;52.130;5.430;2024-03-02T02:14:36;100003.09;;;7.41;100.00
71774;BME280;59607;52.130;5.430;2024-03-02T02:17:04;100008.66;;;7.38;100.00
71774;BME280;59607;52.130;5.430;2024-03-02T02:19:30;100003.59;;;7.37;100.00
71774;BME280;59607;52.130;5.430;2024-03-02T02:22:03;100002.78;;;7.36;100.00
71774;BME280;59607;52.130;5.430;2024-03-02T02:24:41;99996.91;;;7.34;100.00
71774;BME280;59607;52.130;5.430;2024-03-02T02:27:18;100001.78;;;7.29;100.00
71774;BME280;59607;52.130;5.430;2024-03-02T02:29:47;99991.69;;;7.26;100.00
71774;BME280;59607;52.130;5.430;2024-03-02T02:32:16;99983.38;;;7.22;100.00
71774;BME280;59607;52.130;5.430;2024-03-02T02:34:46;99988.91;;;7.19;100.00
71774;BME280;59607;52.130;5.430;2024-03-02T02:37:16;99994.13;;;7.19;100.00
71774;BME280;59607;52.130;5.430;2024-03-02T02:39:43;99995.59;;;7.13;100.00
71774;BME280;59607;52.130;5.430;2024-03-02T02:42:18;100000.16;;;7.11;100.00
71774;BME280;59607;52.130;5.430;2024-03-02T02:44:44;100008.13;;;7.10;100.00
71774;BME280;59607;52.130;5.430;2024-03-02T02:47:11;99997.88;;;7.08;100.00
71774;BME280;59607;52.130;5.430;2024-03-02T02:49:43;99997.19;;;7.06;100.00
71774;BME280;59607;52.130;5.430;2024-03-02T02:52:10;99999.31;;;7.02;100.00
71774;BME280;59607;52.130;5.430;2024-03-02T02:54:38;99997.84;;;7.00;100.00
71774;BME280;59607;52.130;5.430;2024-03-02T02:57:10;99994.72;;;6.96;100.00
71774;BME280;59607;52.130;5.430;2024-03-02T02:59:36;100003.53;;;6.95;100.00
71774;BME280;59607;52.130;5.430;2024-03-02T03:02:13;100010.03;;;6.91;100.00
71774;BME280;59607;52.130;5.430;2024-03-02T03:04:40;100013.63;;;6.90;100.00
71774;BME280;59607;52.130;5.430;2024-03-02T03:07:15;100013.78;;;6.88;100.00
71774;BME280;59607;52.130;5.430;2024-03-02T03:09:45;100002.53;;;6.88;100.00
71774;BME280;59607;52.130;5.430;2024-03-02T03:12:15;100010.34;;;6.88;100.00
71774;BME280;59607;52.130;5.430;2024-03-02T03:14:41;100004.97;;;6.89;100.00
71774;BME280;59607;52.130;5.430;2024-03-02T03:17:08;100003.34;;;6.88;100.00
71774;BME280;59607;52.130;5.430;2024-03-02T03:19:38;100003.50;;;6.87;100.00
71774;BME280;59607;52.130;5.430;2024-03-02T03:22:05;100005.13;;;6.88;100.00
71774;BME280;59607;52.130;5.430;2024-03-02T03:24:41;100014.09;;;6.85;100.00
71774;BME280;59607;52.130;5.430;2024-03-02T03:27:07;100012.63;;;6.83;100.00
71774;BME280;59607;52.130;5.430;2024-03-02T03:29:36;100021.72;;;6.78;100.00
71774;BME280;59607;52.130;5.430;2024-03-02T03:32:06;100020.78;;;6.79;100.00
71774;BME280;59607;52.130;5.430;2024-03-02T03:34:34;100024.50;;;6.77;100.00
71774;BME280;59607;52.130;5.430;2024-03-02T03:37:02;100026.59;;;6.73;100.00
71774;BME280;59607;52.130;5.430;2024-03-02T03:39:28;100026.75;;;6.72;100.00
71774;BME280;59607;52.130;5.430;2024-03-02T03:41:55;100022.69;;;6.69;100.00
71774;BME280;59607;52.130;5.430;2024-03-02T03:44:32;100027.75;;;6.71;100.00
71774;BME280;59607;52.130;5.430;2024-03-02T03:46:59;100029.53;;;6.70;100.00
71774;BME280;59607;52.130;5.430;2024-03-02T03:49:43;100031.16;;;6.71;100.00
71774;BME280;59607;52.130;5.430;2024-03-02T03:52:15;100035.09;;;6.75;100.00
71774;BME280;59607;52.130;5.430;2024-03-02T03:54:42;100043.56;;;6.77;100.00
71774;BME280;59607;52.130;5.430;2024-03-02T03:57:09;100039.81;;;6.80;100.00
71774;BME280;59607;52.130;5.430;2024-03-02T03:59:47;100034.44;;;6.82;100.00
71774;BME280;59607;52.130;5.430;2024-03-02T04:02:14;100029.56;;;6.78;100.00
71774;BME280;59607;52.130;5.430;2024-03-02T04:04:43;100027.44;;;6.82;100.00
71774;BME280;59607;52.130;5.430;2024-03-02T04:07:11;100032.50;;;6.84;100.00
71774;BME280;59607;52.130;5.430;2024-03-02T04:09:44;100035.78;;;6.86;100.00
71774;BME280;59607;52.130;5.430;2024-03-02T04:12:10;100037.41;;;6.87;100.00
71774;BME280;59607;52.130;5.430;2024-03-02T04:14:53;100039.84;;;6.88;100.00
71774;BME280;59607;52.130;5.430;2024-03-02T04:17:19;100044.09;;;6.89;100.00
71774;BME280;59607;52.130;5.430;2024-03-02T04:19:52;100050.94;;;6.90;100.00
71774;BME280;59607;52.130;5.430;2024-03-02T04:22:18;100039.38;;;6.93;100.00
71774;BME280;59607;52.130;5.430;2024-03-02T04:24:54;100052.25;;;6.95;100.00
71774;BME280;59607;52.130;5.430;2024-03-02T04:27:21;100054.22;;;6.93;100.00
71774;BME280;59607;52.130;5.430;2024-03-02T04:29:55;100042.81;;;6.94;100.00
71774;BME280;59607;52.130;5.430;2024-03-02T04:32:22;100051.44;;;6.94;100.00
71774;BME280;59607;52.130;5.430;2024-03-02T04:34:48;100043.47;;;6.96;100.00
71774;BME280;59607;52.130;5.430;2024-03-02T04:37:29;100058.97;;;6.97;100.00
71774;BME280;59607;52.130;5.430;2024-03-02T04:39:55;100061.72;;;6.96;100.00
71774;BME280;59607;52.130;5.430;2024-03-02T04:47:52;100071.69;;;7.00;100.00
71774;BME280;59607;52.130;5.430;2024-03-02T04:50:26;100067.25;;;7.01;100.00
71774;BME280;59607;52.130;5.430;2024-03-02T04:52:53;100074.28;;;7.00;100.00
71774;BME280;59607;52.130;5.430;2024-03-02T04:55:19;100075.91;;;7.01;100.00
71774;BME280;59607;52.130;5.430;2024-03-02T04:58:03;100085.34;;;7.02;100.00
71774;BME280;59607;52.130;5.430;2024-03-02T05:00:31;100083.72;;;7.01;100.00
71774;BME280;59607;52.130;5.430;2024-03-02T05:02:58;100088.28;;;6.99;100.00
71774;BME280;59607;52.130;5.430;2024-03-02T05:05:24;100079.50;;;7.00;100.00
71774;BME280;59607;52.130;5.430;2024-03-02T05:07:51;100077.03;;;6.99;100.00
71774;BME280;59607;52.130;5.430;2024-03-02T05:10:17;100090.88;;;6.99;100.00
71774;BME280;59607;52.130;5.430;2024-03-02T05:12:44;100088.28;;;6.99;100.00
71774;BME280;59607;52.130;5.430;2024-03-02T05:15:12;100091.88;;;6.98;100.00
71774;BME280;59607;52.130;5.430;2024-03-02T05:17:54;100085.03;;;6.97;100.00
71774;BME280;59607;52.130;5.430;2024-03-02T05:20:20;100088.13;;;7.01;100.00
71774;BME280;59607;52.130;5.430;2024-03-02T05:22:49;100094.31;;;7.00;100.00
71774;BME280;59607;52.130;5.430;2024-03-02T05:25:16;100094.31;;;7.00;100.00
71774;BME280;59607;52.130;5.430;2024-03-02T05:27:42;100095.28;;;6.99;100.00
71774;BME280;59607;52.130;5.430;2024-03-02T05:30:13;100090.09;;;6.99;100.00
71774;BME280;59607;52.130;5.430;2024-03-02T05:32:39;100092.53;;;7.00;100.00
71774;BME280;59607;52.130;5.430;2024-03-02T05:35:08;100091.72;;;7.00;100.00
71774;BME280;59607;52.130;5.430;2024-03-02T05:37:37;100097.75;;;7.00;100.00
71774;BME280;59607;52.130;5.430;2024-03-02T05:40:04;100091.72;;;7.00;100.00
71774;BME280;59607;52.130;5.430;2024-03-02T05:42:35;100096.41;;;6.96;100.00
71774;BME280;59607;52.130;5.430;2024-03-02T05:45:02;100091.84;;;6.90;100.00
71774;BME280;59607;52.130;5.430;2024-03-02T05:47:29;100091.16;;;6.79;100.00
71774;BME280;59607;52.130;5.430;2024-03-02T05:49:59;100095.81;;;6.68;100.00
71774;BME280;59607;52.130;5.430;2024-03-02T05:52:25;100097.53;;;6.59;100.00
71774;BME280;59607;52.130;5.430;2024-03-02T05:54:52;100090.34;;;6.52;100.00
71774;BME280;59607;52.130;5.430;2024-03-02T05:57:22;100103.06;;;6.56;100.00
71774;BME280;59607;52.130;5.430;2024-03-02T06:00:14;100106.53;;;6.64;100.00
71774;BME280;59607;52.130;5.430;2024-03-02T06:02:46;100113.22;;;6.67;100.00
71774;BME280;59607;52.130;5.430;2024-03-02T06:05:12;100108.53;;;6.71;100.00
71774;BME280;59607;52.130;5.430;2024-03-02T06:07:39;100111.28;;;6.69;100.00
71774;BME280;59607;52.130;5.430;2024-03-02T06:10:12;100117.97;;;6.72;100.00
71774;BME280;59607;52.130;5.430;2024-03-02T06:12:41;100118.13;;;6.70;100.00
71774;BME280;59607;52.130;5.430;2024-03-02T06:15:14;100123.66;;;6.67;100.00
71774;BME280;59607;52.130;5.430;2024-03-02T06:17:44;100127.25;;;6.66;100.00
71774;BME280;59607;52.130;5.430;2024-03-02T06:20:14;100125.47;;;6.66;100.00
71774;BME280;59607;52.130;5.430;2024-03-02T06:22:45;100134.06;;;6.67;100.00
71774;BME280;59607;52.130;5.430;2024-03-02T06:25:11;100134.22;;;6.65;100.00
71774;BME280;59607;52.130;5.430;2024-03-02T06:27:45;100137.00;;;6.64;100.00
71774;BME280;59607;52.130;5.430;2024-03-02T06:30:12;100139.75;;;6.62;100.00
71774;BME280;59607;52.130;5.430;2024-03-02T06:32:39;100143.50;;;6.60;100.00
71774;BME280;59607;52.130;5.430;2024-03-02T06:35:13;100146.91;;;6.60;100.00
71774;BME280;59607;52.130;5.430;2024-03-02T06:37:40;100144.13;;;6.62;100.00
71774;BME280;59607;52.130;5.430;2024-03-02T06:40:13;100155.91;;;6.66;100.00
71774;BME280;59607;52.130;5.430;2024-03-02T06:42:39;100149.56;;;6.69;100.00
71774;BME280;59607;52.130;5.430;2024-03-02T06:45:09;100153.97;;;6.68;100.00
71774;BME280;59607;52.130;5.430;2024-03-02T06:47:36;100147.63;;;6.71;100.00
71774;BME280;59607;52.130;5.430;2024-03-02T06:50:02;100154.00;;;6.76;100.00
71774;BME280;59607;52.130;5.430;2024-03-02T06:52:29;100146.69;;;6.80;100.00
71774;BME280;59607;52.130;5.430;2024-03-02T06:54:55;100150.63;;;6.84;100.00
71774;BME280;59607;52.130;5.430;2024-03-02T06:57:26;100150.81;;;6.91;100.00
71774;BME280;59607;52.130;5.430;2024-03-02T06:59:59;100146.31;;;7.01;100.00
71774;BME280;59607;52.130;5.430;2024-03-02T07:02:34;100152.50;;;7.00;100.00
71774;BME280;59607;52.130;5.430;2024-03-02T07:05:06;100151.00;;;6.98;100.00
71774;BME280;59607;52.130;5.430;2024-03-02T07:07:34;100149.22;;;6.98;100.00
71774;BME280;59607;52.130;5.430;2024-03-02T07:10:01;100149.06;;;7.00;100.00
71774;BME280;59607;52.130;5.430;2024-03-02T07:12:30;100156.41;;;7.04;100.00
71774;BME280;59607;52.130;5.430;2024-03-02T07:14:57;100154.31;;;7.08;100.00
71774;BME280;59607;52.130;5.430;2024-03-02T07:17:35;100148.63;;;7.13;100.00
71774;BME280;59607;52.130;5.430;2024-03-02T07:20:05;100155.00;;;7.19;100.00
71774;BME280;59607;52.130;5.430;2024-03-02T07:22:37;100149.50;;;7.22;100.00
71774;BME280;59607;52.130;5.430;2024-03-02T07:25:10;100154.56;;;7.32;100.00
71774;BME280;59607;52.130;5.430;2024-03-02T07:27:42;100153.28;;;7.36;100.00
71774;BME280;59607;52.130;5.430;2024-03-02T07:30:13;100157.84;;;7.42;100.00
71774;BME280;59607;52.130;5.430;2024-03-02T07:32:41;100163.09;;;7.50;100.00
71774;BME280;59607;52.130;5.430;2024-03-02T07:35:23;100167.53;;;7.58;100.00
71774;BME280;59607;52.130;5.430;2024-03-02T07:37:53;100170.97;;;7.67;100.00
71774;BME280;59607;52.130;5.430;2024-03-02T07:40:26;100172.63;;;7.76;100.00
71774;BME280;59607;52.130;5.430;2024-03-02T07:42:52;100169.03;;;7.77;100.00
71774;BME280;59607;52.130;5.430;2024-03-02T07:45:19;100171.97;;;7.83;100.00
71774;BME280;59607;52.130;5.430;2024-03-02T07:47:49;100171.00;;;7.92;100.00
71774;BME280;59607;52.130;5.430;2024-03-02T07:50:16;100171.16;;;7.90;100.00
71774;BME280;59607;52.130;5.430;2024-03-02T07:52:43;100184.38;;;7.89;100.00
71774;BME280;59607;52.130;5.430;2024-03-02T07:55:16;100179.47;;;7.86;100.00
71774;BME280;59607;52.130;5.430;2024-03-02T07:57:43;100180.97;;;7.80;100.00
71774;BME280;59607;52.130;5.430;2024-03-02T08:00:23;100174.75;;;7.81;100.00
71774;BME280;59607;52.130;5.430;2024-03-02T08:03:07;100187.97;;;7.80;100.00
71774;BME280;59607;52.130;5.430;2024-03-02T08:05:51;100190.72;;;7.78;100.00
71774;BME280;59607;52.130;5.430;2024-03-02T08:08:22;100193.50;;;7.76;100.00
71774;BME280;59607;52.130;5.430;2024-03-02T08:10:48;100192.69;;;7.76;100.00
71774;BME280;59607;52.130;5.430;2024-03-02T08:13:19;100199.53;;;7.77;100.00
71774;BME280;59607;52.130;5.430;2024-03-02T08:15:45;100201.16;;;7.70;100.00
71774;BME280;59607;52.130;5.430;2024-03-02T08:18:13;100200.00;;;7.72;100.00
71774;BME280;59607;52.130;5.430;2024-03-02T08:20:50;100201.50;;;7.75;100.00
71774;BME280;59607;52.130;5.430;2024-03-02T08:23:17;100205.06;;;7.74;100.00
71774;BME280;59607;52.130;5.430;2024-03-02T08:25:51;100201.00;;;7.80;100.00
71774;BME280;59607;52.130;5.430;2024-03-02T08:28:18;100198.91;;;7.92;100.00
71774;BME280;59607;52.130;5.430;2024-03-02T08:30:45;100192.75;;;8.09;100.00
71774;BME280;59607;52.130;5.430;2024-03-02T08:33:17;100189.47;;;8.24;100.00
71774;BME280;59607;52.130;5.430;2024-03-02T08:35:46;100196.16;;;8.43;100.00
71774;BME280;59607;52.130;5.430;2024-03-02T08:38:19;100191.28;;;8.57;100.00
71774;BME280;59607;52.130;5.430;2024-03-02T08:40:45;100186.84;;;8.66;100.00
71774;BME280;59607;52.130;5.430;2024-03-02T08:43:13;100192.25;;;8.72;100.00
71774;BME280;59607;52.130;5.430;2024-03-02T08:45:42;100195.53;;;8.66;100.00
71774;BME280;59607;52.130;5.430;2024-03-02T08:48:09;100197.59;;;8.79;100.00
71774;BME280;59607;52.130;5.430;2024-03-02T08:50:36;100195.47;;;8.83;100.00
71774;BME280;59607;52.130;5.430;2024-03-02T08:53:08;100192.34;;;8.87;100.00
71774;BME280;59607;52.130;5.430;2024-03-02T08:55:48;100181.09;;;8.87;100.00
71774;BME280;59607;52.130;5.430;2024-03-02T08:58:15;100199.84;;;8.91;100.00
71774;BME280;59607;52.130;5.430;2024-03-02T09:00:42;100197.59;;;8.87;100.00
71774;BME280;59607;52.130;5.430;2024-03-02T09:03:12;100194.16;;;8.95;100.00
71774;BME280;59607;52.130;5.430;2024-03-02T09:05:38;100195.63;;;8.89;100.00
71774;BME280;59607;52.130;5.430;2024-03-02T09:08:08;100194.44;;;9.00;100.00
71774;BME280;59607;52.130;5.430;2024-03-02T09:10:42;100197.03;;;9.09;100.00
71774;BME280;59607;52.130;5.430;2024-03-02T09:13:12;100195.41;;;9.08;100.00
71774;BME280;59607;52.130;5.430;2024-03-02T09:15:39;100196.19;;;9.17;100.00
71774;BME280;59607;52.130;5.430;2024-03-02T09:18:06;100193.19;;;9.28;100.00
71774;BME280;59607;52.130;5.430;2024-03-02T09:20:41;100193.13;;;9.45;100.00
71774;BME280;59607;52.130;5.430;2024-03-02T09:23:08;100196.22;;;9.48;100.00
71774;BME280;59607;52.130;5.430;2024-03-02T09:25:41;100196.19;;;9.57;100.00
71774;BME280;59607;52.130;5.430;2024-03-02T09:28:10;100196.94;;;9.66;100.00
71774;BME280;59607;52.130;5.430;2024-03-02T09:30:37;100198.59;;;9.67;100.00
71774;BME280;59607;52.130;5.430;2024-03-02T09:33:17;100188.22;;;9.73;100.00
71774;BME280;59607;52.130;5.430;2024-03-02T09:35:45;100187.44;;;9.73;100.00
71774;BME280;59607;52.130;5.430;2024-03-02T09:38:11;100198.53;;;9.75;100.00
71774;BME280;59607;52.130;5.430;2024-03-02T09:40:38;100192.72;;;9.88;100.00
71774;BME280;59607;52.130;5.430;2024-03-02T09:43:04;100205.41;;;9.99;100.00
71774;BME280;59607;52.130;5.430;2024-03-02T09:45:37;100208.31;;;10.05;99.54
71774;BME280;59607;52.130;5.430;2024-03-02T09:48:10;100211.91;;;10.12;99.98
71774;BME280;59607;52.130;5.430;2024-03-02T09:50:40;100205.28;;;10.16;96.93
71774;BME280;59607;52.130;5.430;2024-03-02T09:53:09;100212.16;;;10.17;95.04
71774;BME280;59607;52.130;5.430;2024-03-02T09:55:46;100198.28;;;10.32;94.79
71774;BME280;59607;52.130;5.430;2024-03-02T09:58:13;100209.53;;;10.41;94.67
71774;BME280;59607;52.130;5.430;2024-03-02T10:00:43;100210.97;;;10.43;94.44
71774;BME280;59607;52.130;5.430;2024-03-02T10:03:12;100214.19;;;10.54;93.20
71774;BME280;59607;52.130;5.430;2024-03-02T10:05:42;100209.84;;;10.61;94.02
71774;BME280;59607;52.130;5.430;2024-03-02T10:08:08;100207.31;;;10.53;92.61
71774;BME280;59607;52.130;5.430;2024-03-02T10:10:36;100214.31;;;10.60;92.64
71774;BME280;59607;52.130;5.430;2024-03-02T10:13:25;100208.16;;;10.68;91.92
71774;BME280;59607;52.130;5.430;2024-03-02T10:15:52;100210.25;;;10.73;92.41
71774;BME280;59607;52.130;5.430;2024-03-02T10:18:26;100202.47;;;10.80;90.93
71774;BME280;59607;52.130;5.430;2024-03-02T10:21:16;100199.31;;;10.84;89.08
71774;BME280;59607;52.130;5.430;2024-03-02T10:23:43;100204.91;;;10.81;89.45
71774;BME280;59607;52.130;5.430;2024-03-02T10:26:19;100200.50;;;10.82;89.63
71774;BME280;59607;52.130;5.430;2024-03-02T10:28:48;100208.91;;;10.92;89.13
71774;BME280;59607;52.130;5.430;2024-03-02T10:31:22;100200.03;;;10.93;86.48
71774;BME280;59607;52.130;5.430;2024-03-02T10:33:57;100201.94;;;10.84;87.07
71774;BME280;59607;52.130;5.430;2024-03-02T10:36:33;100185.94;;;10.94;88.07
71774;BME280;59607;52.130;5.430;2024-03-02T10:39:07;100201.94;;;10.84;89.29
71774;BME280;59607;52.130;5.430;2024-03-02T10:41:38;100200.75;;;11.02;88.70
71774;BME280;59607;52.130;5.430;2024-03-02T10:44:09;100191.00;;;11.11;87.86
71774;BME280;59607;52.130;5.430;2024-03-02T10:46:37;100192.16;;;11.08;86.39
71774;BME280;59607;52.130;5.430;2024-03-02T10:49:06;100175.25;;;11.11;85.83
71774;BME280;59607;52.130;5.430;2024-03-02T10:51:42;100180.19;;;11.21;85.15
71774;BME280;59607;52.130;5.430;2024-03-02T10:54:13;100173.41;;;11.27;86.57
71774;BME280;59607;52.130;5.430;2024-03-02T10:56:40;100176.53;;;11.37;86.52
71774;BME280;59607;52.130;5.430;2024-03-02T10:59:33;100170.81;;;11.48;88.35
71774;BME280;59607;52.130;5.430;2024-03-02T11:49:56;100152.59;;;12.34;74.68
71774;BME280;59607;52.130;5.430;2024-03-02T11:52:23;100150.06;;;12.48;72.99
71774;BME280;59607;52.130;5.430;2024-03-02T11:54:53;100146.81;;;12.46;72.65
71774;BME280;59607;52.130;5.430;2024-03-02T11:57:22;100135.69;;;12.44;72.63
71774;BME280;59607;52.130;5.430;2024-03-02T12:44:13;100110.22;;;12.93;70.60
71774;BME280;59607;52.130;5.430;2024-03-02T12:46:40;100102.53;;;12.92;71.23
71774;BME280;59607;52.130;5.430;2024-03-02T12:49:16;100092.44;;;12.95;72.29
71774;BME280;59607;52.130;5.430;2024-03-02T12:51:43;100086.78;;;12.99;71.28
71774;BME280;59607;52.130;5.430;2024-03-02T12:54:10;100087.38;;;12.94;69.90
71774;BME280;59607;52.130;5.430;2024-03-02T12:56:42;100084.91;;;12.86;71.47
71774;BME280;59607;52.130;5.430;2024-03-02T12:59:23;100078.41;;;12.81;71.49
71774;BME280;59607;52.130;5.430;2024-03-02T13:01:54;100075.75;;;12.75;70.37
71774;BME280;59607;52.130;5.430;2024-03-02T13:04:25;100075.41;;;12.85;70.62
71774;BME280;59607;52.130;5.430;2024-03-02T13:07:03;100077.63;;;12.88;70.99
71774;BME280;59607;52.130;5.430;2024-03-02T13:09:32;100084.28;;;12.83;71.12
71774;BME280;59607;52.130;5.430;2024-03-02T13:12:00;100085.13;;;12.91;71.46
71774;BME280;59607;52.130;5.430;2024-03-02T13:14:36;100078.47;;;13.02;71.66
71774;BME280;59607;52.130;5.430;2024-03-02T13:17:03;100074.66;;;13.11;71.17
71774;BME280;59607;52.130;5.430;2024-03-02T13:19:31;100075.72;;;13.30;72.11
71774;BME280;59607;52.130;5.430;2024-03-02T13:22:01;100079.56;;;13.28;69.59
71774;BME280;59607;52.130;5.430;2024-03-02T13:24:32;100081.13;;;13.08;71.41
71774;BME280;59607;52.130;5.430;2024-03-02T13:29:49;100083.34;;;13.05;72.66
71774;BME280;59607;52.130;5.430;2024-03-02T13:32:16;100078.31;;;13.24;71.57
71774;BME280;59607;52.130;5.430;2024-03-02T13:34:47;100082.59;;;13.25;71.64
71774;BME280;59607;52.130;5.430;2024-03-02T13:37:13;100073.84;;;13.04;71.55
71774;BME280;59607;52.130;5.430;2024-03-02T13:39:46;100077.22;;;12.84;72.88
71774;BME280;59607;52.130;5.430;2024-03-02T13:42:16;100081.41;;;12.71;73.55
71774;BME280;59607;52.130;5.430;2024-03-02T13:44:43;100078.19;;;12.83;73.14
71774;BME280;59607;52.130;5.430;2024-03-02T13:47:13;100076.25;;;12.99;72.25
71774;BME280;59607;52.130;5.430;2024-03-02T13:49:40;100070.81;;;13.07;72.22
71774;BME280;59607;52.130;5.430;2024-03-02T13:52:24;100066.13;;;13.02;71.73
71774;BME280;59607;52.130;5.430;2024-03-02T13:55:06;100060.16;;;12.80;72.65
71774;BME280;59607;52.130;5.430;2024-03-02T13:57:36;100068.66;;;12.75;74.08
71774;BME280;59607;52.130;5.430;2024-03-02T14:00:06;100058.34;;;12.80;74.16
71774;BME280;59607;52.130;5.430;2024-03-02T14:02:45;100055.53;;;12.82;73.50
71774;BME280;59607;52.130;5.430;2024-03-02T14:05:15;100058.72;;;12.70;74.26
71774;BME280;59607;52.130;5.430;2024-03-02T14:07:45;100045.72;;;12.55;72.40
71774;BME280;59607;52.130;5.430;2024-03-02T14:10:12;100049.50;;;12.46;73.49
71774;BME280;59607;52.130;5.430;2024-03-02T14:12:40;100041.03;;;12.44;74.86
71774;BME280;59607;52.130;5.430;2024-03-02T14:15:10;100034.75;;;12.45;74.49
71774;BME280;59607;52.130;5.430;2024-03-02T14:17:36;100037.28;;;12.31;74.37
71774;BME280;59607;52.130;5.430;2024-03-02T14:20:07;100038.06;;;12.25;74.97
71774;BME280;59607;52.130;5.430;2024-03-02T14:22:38;100029.75;;;12.21;75.35
71774;BME280;59607;52.130;5.430;2024-03-02T14:25:10;100029.59;;;12.30;75.39
71774;BME280;59607;52.130;5.430;2024-03-02T14:27:44;100018.97;;;12.45;74.31
71774;BME280;59607;52.130;5.430;2024-03-02T14:30:27;100013.38;;;12.62;73.81
71774;BME280;59607;52.130;5.430;2024-03-02T14:32:56;99999.25;;;12.76;73.92
71774;BME280;59607;52.130;5.430;2024-03-02T14:35:26;99996.25;;;12.86;72.96
71774;BME280;59607;52.130;5.430;2024-03-02T14:37:57;99991.38;;;12.90;72.09
71774;BME280;59607;52.130;5.430;2024-03-02T14:40:29;99983.69;;;12.95;72.52
71774;BME280;59607;52.130;5.430;2024-03-02T14:43:01;99984.72;;;12.94;71.49
71774;BME280;59607;52.130;5.430;2024-03-02T14:45:31;99988.34;;;12.93;69.58
71774;BME280;59607;52.130;5.430;2024-03-02T14:48:01;99988.75;;;12.96;69.54
71774;BME280;59607;52.130;5.430;2024-03-02T14:50:31;99996.25;;;12.93;70.49